Time;durP1;ratioP1;P1;durP2;ratioP2;P2;SDS_P1;SDS_P2;PMS_P1;PMS_P2;Temp;Humidity;BMP_temperature;BMP_pressure;BME280_temperature;BME280_humidity;BME280_pressure;Samples;Min_cycle;Max_cycle;Signal;HPM_P1;HPM_P2
2023/11/30 00:02:55;;;;;;;31.80;13.52;;;-1.40;99.90;;;;;;6171283;28;20158;-81
2023/11/30 00:05:57;;;;;;;34.92;14.68;;;-1.30;99.90;;;;;;6192828;28;20212;-82
2023/11/30 00:08:59;;;;;;;33.13;14.10;;;-1.40;99.90;;;;;;6169747;28;20062;-81
2023/11/30 00:12:03;;;;;;;35.00;14.50;;;-1.40;99.90;;;;;;6169483;28;20058;-81
2023/11/30 00:15:04;;;;;;;38.47;14.63;;;-1.40;99.90;;;;;;6186156;28;20065;-81
2023/11/30 00:18:07;;;;;;;35.25;15.40;;;-1.40;99.90;;;;;;6170708;28;20491;-81
2023/11/30 00:21:09;;;;;;;35.55;15.65;;;-1.50;99.90;;;;;;6230201;28;20567;-81
2023/11/30 00:24:11;;;;;;;31.38;14.10;;;-1.40;99.90;;;;;;6202029;28;20058;-82
2023/11/30 00:27:12;;;;;;;35.53;14.65;;;-1.50;99.90;;;;;;6224186;28;20061;-81
2023/11/30 00:30:14;;;;;;;32.75;14.30;;;-1.50;99.90;;;;;;6198603;28;20053;-82
2023/11/30 00:33:15;;;;;;;32.38;14.05;;;-1.50;99.90;;;;;;6243637;28;20516;-81
2023/11/30 00:36:17;;;;;;;36.13;13.68;;;-1.50;99.90;;;;;;6201880;28;20054;-81
2023/11/30 00:39:19;;;;;;;32.03;13.70;;;-1.50;99.90;;;;;;6225195;28;20102;-83
2023/11/30 00:42:21;;;;;;;32.95;13.75;;;-1.50;99.90;;;;;;6221173;28;20057;-82
2023/11/30 00:45:23;;;;;;;38.45;14.18;;;-1.50;99.90;;;;;;6228812;28;20544;-82
2023/11/30 00:48:25;;;;;;;32.08;13.88;;;-1.50;99.90;;;;;;6223330;28;20068;-82
2023/11/30 00:51:28;;;;;;;30.08;13.25;;;-1.50;99.90;;;;;;6247465;28;20057;-81
2023/11/30 00:54:30;;;;;;;31.15;13.15;;;-1.60;99.90;;;;;;6206269;28;20587;-82
2023/11/30 00:57:32;;;;;;;26.80;12.93;;;-1.70;99.90;;;;;;6226054;28;20081;-81
2023/11/30 01:00:35;;;;;;;34.95;13.35;;;-1.70;99.90;;;;;;6205855;28;20056;-82
2023/11/30 01:03:36;;;;;;;31.38;12.93;;;-1.70;99.90;;;;;;6206164;28;20056;-82
2023/11/30 01:06:38;;;;;;;27.92;12.60;;;-1.70;99.90;;;;;;6221187;28;20521;-82
2023/11/30 01:09:40;;;;;;;34.20;13.68;;;-1.70;99.90;;;;;;6245242;28;20742;-82
2023/11/30 01:12:41;;;;;;;32.20;14.18;;;-1.80;99.90;;;;;;6237073;28;20732;-82
2023/11/30 01:15:43;;;;;;;33.72;14.10;;;-1.70;99.90;;;;;;6223017;28;20065;-82
2023/11/30 01:18:45;;;;;;;33.40;14.32;;;-1.80;99.90;;;;;;6229069;28;20465;-82
2023/11/30 01:21:47;;;;;;;31.00;13.38;;;-1.70;99.90;;;;;;6222491;28;20576;-82
2023/11/30 01:24:48;;;;;;;31.17;13.55;;;-1.80;99.90;;;;;;6229260;28;20053;-82
2023/11/30 01:27:51;;;;;;;29.80;13.13;;;-1.70;99.90;;;;;;6220521;28;20519;-83
2023/11/30 01:30:53;;;;;;;34.85;13.60;;;-1.80;99.90;;;;;;6205582;28;20057;-82
2023/11/30 01:33:55;;;;;;;35.08;14.80;;;-1.80;99.90;;;;;;6228296;28;20405;-82
2023/11/30 01:36:56;;;;;;;35.78;15.23;;;-1.80;99.90;;;;;;6205719;28;20172;-83
2023/11/30 01:39:58;;;;;;;34.85;14.85;;;-1.80;99.90;;;;;;6228915;28;20049;-82
2023/11/30 01:43:00;;;;;;;33.97;14.02;;;-1.80;99.90;;;;;;6217675;28;20147;-82
2023/11/30 01:46:01;;;;;;;33.42;13.65;;;-1.80;99.90;;;;;;6221838;28;20564;-82
2023/11/30 01:49:05;;;;;;;35.45;14.57;;;-1.80;99.90;;;;;;6229085;28;20160;-82
2023/11/30 01:52:06;;;;;;;34.55;13.27;;;-1.90;99.90;;;;;;6228991;28;20052;-82
2023/11/30 01:55:08;;;;;;;29.65;12.48;;;-1.90;99.90;;;;;;6205136;28;20105;-82
2023/11/30 01:58:10;;;;;;;29.10;11.77;;;-1.90;99.90;;;;;;6225846;28;20057;-82
2023/11/30 02:01:11;;;;;;;34.15;13.32;;;-1.90;99.90;;;;;;6204753;28;20057;-82
2023/11/30 02:04:13;;;;;;;29.35;13.18;;;-1.90;99.90;;;;;;6245929;28;20140;-82
2023/11/30 02:07:15;;;;;;;31.48;13.82;;;-2.00;99.90;;;;;;6204467;28;20628;-82
2023/11/30 02:10:16;;;;;;;32.22;13.10;;;-2.00;99.90;;;;;;6217910;28;20089;-82
2023/11/30 02:13:18;;;;;;;30.10;12.93;;;-2.00;99.90;;;;;;6212429;28;20050;-82
2023/11/30 02:16:19;;;;;;;35.30;13.40;;;-2.00;99.90;;;;;;6245821;28;20463;-82
2023/11/30 02:19:21;;;;;;;33.90;13.50;;;-2.00;99.90;;;;;;6242450;28;22666;-82
2023/11/30 02:22:23;;;;;;;32.72;12.95;;;-2.10;99.90;;;;;;6221530;28;20449;-82
2023/11/30 02:25:24;;;;;;;30.52;12.40;;;-2.10;99.90;;;;;;6245585;28;20531;-82
2023/11/30 02:28:26;;;;;;;32.33;13.20;;;-2.10;99.90;;;;;;6209704;28;20421;-82
2023/11/30 02:31:27;;;;;;;31.73;12.70;;;-2.10;99.90;;;;;;6245452;28;20050;-82
2023/11/30 02:34:29;;;;;;;27.90;12.13;;;-2.10;99.90;;;;;;6221726;28;20518;-82
2023/11/30 02:37:30;;;;;;;26.80;11.90;;;-2.20;99.90;;;;;;6245128;28;20492;-82
2023/11/30 02:40:32;;;;;;;29.58;12.52;;;-2.20;99.90;;;;;;6222208;28;20058;-82
2023/11/30 02:43:34;;;;;;;34.33;11.90;;;-2.20;99.90;;;;;;6231722;28;20092;-83
2023/11/30 02:46:35;;;;;;;28.88;12.57;;;-2.20;99.90;;;;;;6228978;28;20064;-82
2023/11/30 02:49:37;;;;;;;38.85;13.45;;;-2.20;99.90;;;;;;6227503;28;20083;-81
2023/11/30 02:52:38;;;;;;;38.08;14.32;;;-2.20;99.90;;;;;;6203871;28;20050;-83
2023/11/30 02:55:40;;;;;;;32.20;12.73;;;-2.30;99.90;;;;;;6244293;28;20662;-83
2023/11/30 02:58:42;;;;;;;32.05;12.73;;;-2.30;99.90;;;;;;6209692;28;20509;-84
2023/11/30 03:01:43;;;;;;;34.80;13.23;;;-2.30;99.90;;;;;;6203375;28;20159;-84
2023/11/30 03:04:45;;;;;;;28.23;12.23;;;-2.20;99.90;;;;;;6243508;28;20472;-83
2023/11/30 03:07:47;;;;;;;29.55;11.55;;;-2.30;99.90;;;;;;6218368;28;20437;-83
2023/11/30 03:10:48;;;;;;;36.78;13.35;;;-2.30;99.90;;;;;;6226640;28;20413;-83
2023/11/30 03:13:50;;;;;;;32.97;12.02;;;-2.30;99.90;;;;;;6210831;28;20061;-83
2023/11/30 03:16:52;;;;;;;35.53;13.45;;;-2.30;99.90;;;;;;6226594;28;20049;-83
2023/11/30 03:19:53;;;;;;;33.05;12.32;;;-2.30;99.90;;;;;;6227326;28;20062;-84
2023/11/30 03:22:55;;;;;;;29.85;13.15;;;-2.30;99.90;;;;;;6227456;28;20060;-84
2023/11/30 03:25:56;;;;;;;30.55;12.18;;;-2.30;99.90;;;;;;6203053;28;20046;-84
2023/11/30 03:28:58;;;;;;;31.88;12.50;;;-2.30;99.90;;;;;;6222473;28;20052;-83
2023/11/30 03:32:00;;;;;;;32.40;12.80;;;-2.40;99.90;;;;;;6220658;28;20060;-84
2023/11/30 03:35:01;;;;;;;30.88;12.32;;;-2.40;99.90;;;;;;6244041;28;20504;-83
2023/11/30 03:38:03;;;;;;;30.38;13.10;;;-2.40;99.90;;;;;;6220425;28;20081;-83
2023/11/30 03:41:04;;;;;;;33.25;13.05;;;-2.40;99.90;;;;;;6243018;28;20053;-83
2023/11/30 03:44:06;;;;;;;33.67;13.32;;;-2.40;99.90;;;;;;6213376;28;20060;-83
2023/11/30 03:47:08;;;;;;;27.10;11.93;;;-2.40;99.90;;;;;;6245060;28;20056;-83
2023/11/30 03:50:09;;;;;;;34.47;13.10;;;-2.40;99.90;;;;;;6221883;28;20058;-83
2023/11/30 03:53:11;;;;;;;34.20;12.98;;;-2.40;99.90;;;;;;6243411;28;20057;-83
2023/11/30 03:56:12;;;;;;;35.67;12.35;;;-2.40;99.90;;;;;;6220737;28;20076;-83
2023/11/30 03:59:14;;;;;;;32.13;12.98;;;-2.40;99.90;;;;;;6243591;28;20058;-84
2023/11/30 04:02:15;;;;;;;29.58;12.98;;;-2.40;99.90;;;;;;6220153;28;20081;-83
2023/11/30 04:05:19;;;;;;;35.83;13.35;;;-2.40;99.90;;;;;;6225630;28;20053;-85
2023/11/30 04:08:21;;;;;;;34.25;12.13;;;-2.50;99.90;;;;;;6226209;28;20135;-84
2023/11/30 04:11:22;;;;;;;31.58;12.63;;;-2.50;99.90;;;;;;6243485;28;20053;-84
2023/11/30 04:14:24;;;;;;;31.00;12.85;;;-2.50;99.90;;;;;;6215738;28;20712;-84
2023/11/30 04:17:26;;;;;;;40.17;14.30;;;-2.50;99.90;;;;;;6243201;28;20061;-84
2023/11/30 04:20:27;;;;;;;33.22;12.57;;;-2.50;99.90;;;;;;6231429;28;20548;-84
2023/11/30 04:23:29;;;;;;;31.77;12.98;;;-2.50;99.90;;;;;;6219927;28;20716;-84
2023/11/30 04:26:31;;;;;;;33.28;13.35;;;-2.50;99.90;;;;;;6242962;28;20053;-85
2023/11/30 04:29:32;;;;;;;38.47;14.05;;;-2.50;99.90;;;;;;6199562;28;20054;-84
2023/11/30 04:32:34;;;;;;;36.60;14.05;;;-2.50;99.90;;;;;;6243157;28;20049;-84
2023/11/30 04:35:35;;;;;;;30.58;13.23;;;-2.50;99.90;;;;;;6219557;28;20418;-84
2023/11/30 04:38:37;;;;;;;32.35;13.35;;;-2.50;99.90;;;;;;6242110;28;20437;-84
2023/11/30 04:41:38;;;;;;;34.33;13.18;;;-2.50;99.90;;;;;;6219623;28;20132;-84
2023/11/30 04:44:40;;;;;;;37.83;13.90;;;-2.60;99.90;;;;;;6241091;28;20449;-84
2023/11/30 04:47:42;;;;;;;37.22;14.25;;;-2.60;99.90;;;;;;6219531;28;20107;-84
2023/11/30 04:50:43;;;;;;;37.00;14.38;;;-2.60;99.90;;;;;;6242775;28;20489;-84
2023/11/30 04:53:45;;;;;;;39.00;15.65;;;-2.70;99.90;;;;;;6204374;28;20208;-85
2023/11/30 04:56:46;;;;;;;37.88;14.82;;;-2.60;99.90;;;;;;6245876;28;20069;-84
2023/11/30 04:59:48;;;;;;;35.88;12.90;;;-2.60;99.90;;;;;;6213412;28;20062;-85
2023/11/30 05:02:50;;;;;;;29.55;13.13;;;-2.60;99.90;;;;;;6242253;28;20524;-85
2023/11/30 05:05:52;;;;;;;40.03;13.57;;;-2.60;99.90;;;;;;6217738;28;20056;-84
2023/11/30 05:08:54;;;;;;;34.88;14.02;;;-2.60;99.90;;;;;;6227714;28;20782;-85
2023/11/30 05:11:55;;;;;;;36.35;14.90;;;-2.50;99.90;;;;;;6231700;28;20145;-84
2023/11/30 05:14:57;;;;;;;33.58;13.98;;;-2.50;99.90;;;;;;6256010;28;20044;-85
2023/11/30 05:17:59;;;;;;;31.35;13.07;;;-2.50;99.90;;;;;;6233399;28;20053;-85
2023/11/30 05:21:00;;;;;;;33.45;13.80;;;-2.50;99.90;;;;;;6220256;28;20073;-84
2023/11/30 05:24:02;;;;;;;40.15;14.70;;;-2.50;99.90;;;;;;6242905;28;20057;-84
2023/11/30 05:27:04;;;;;;;32.80;13.70;;;-2.60;99.90;;;;;;6219991;28;20050;-84
2023/11/30 05:30:05;;;;;;;35.30;13.93;;;-2.60;99.90;;;;;;6245571;28;20056;-84
2023/11/30 05:33:07;;;;;;;35.08;14.65;;;-2.60;99.90;;;;;;6223768;28;20145;-84
2023/11/30 05:36:08;;;;;;;30.35;12.57;;;-2.60;99.90;;;;;;6246598;28;20056;-84
2023/11/30 05:39:10;;;;;;;31.80;13.20;;;-2.60;99.90;;;;;;6224197;28;20062;-84
2023/11/30 05:42:12;;;;;;;33.38;12.98;;;-2.60;99.90;;;;;;6248698;28;20138;-83
2023/11/30 05:45:14;;;;;;;33.53;13.10;;;-2.70;99.90;;;;;;6206138;28;20509;-84
2023/11/30 05:48:15;;;;;;;33.95;13.43;;;-2.70;99.90;;;;;;6222903;28;20042;-84
2023/11/30 05:51:17;;;;;;;37.30;14.30;;;-2.70;99.90;;;;;;6246684;28;20053;-84
2023/11/30 05:54:19;;;;;;;36.75;14.50;;;-2.70;99.90;;;;;;6223185;28;20050;-83
2023/11/30 05:57:21;;;;;;;36.95;14.45;;;-2.60;99.90;;;;;;6226996;28;20061;-83
2023/11/30 06:00:23;;;;;;;33.53;13.57;;;-2.60;99.90;;;;;;6217148;28;20053;-84
2023/11/30 06:03:24;;;;;;;38.97;14.07;;;-2.60;99.90;;;;;;6222423;28;20042;-84
2023/11/30 06:06:26;;;;;;;32.90;14.10;;;-2.50;99.90;;;;;;6246336;28;20049;-84
2023/11/30 06:09:28;;;;;;;32.55;13.23;;;-2.50;99.90;;;;;;6222758;28;20049;-85
2023/11/30 06:12:30;;;;;;;36.92;13.98;;;-2.50;99.90;;;;;;6243241;28;20057;-79
2023/11/30 06:15:32;;;;;;;36.47;14.20;;;-2.50;99.90;;;;;;6202278;28;20060;-83
2023/11/30 06:18:33;;;;;;;41.25;14.48;;;-2.40;99.90;;;;;;6220477;28;20046;-84
2023/11/30 06:21:35;;;;;;;36.72;13.93;;;-2.40;99.90;;;;;;6221664;28;20136;-84
2023/11/30 06:24:37;;;;;;;36.20;15.23;;;-2.30;99.90;;;;;;6246287;28;20061;-83
2023/11/30 06:27:38;;;;;;;33.10;14.57;;;-2.20;99.90;;;;;;6224657;28;20079;-84
2023/11/30 06:30:40;;;;;;;34.58;13.70;;;-2.10;99.90;;;;;;6246999;28;20504;-85
2023/11/30 06:33:42;;;;;;;38.28;14.05;;;-2.10;99.90;;;;;;6221726;28;20049;-84
2023/11/30 06:36:43;;;;;;;34.85;14.38;;;-1.90;99.90;;;;;;6245358;28;20489;-84
2023/11/30 06:39:45;;;;;;;35.40;14.27;;;-1.80;99.90;;;;;;6221291;28;20390;-84
2023/11/30 06:42:47;;;;;;;39.97;15.30;;;-1.70;99.90;;;;;;6235465;28;20046;-86
2023/11/30 06:45:49;;;;;;;33.03;14.65;;;-1.50;99.90;;;;;;6221125;28;20058;-85
2023/11/30 06:48:52;;;;;;;36.20;15.48;;;-1.40;99.90;;;;;;6245487;28;20049;-85
2023/11/30 06:51:53;;;;;;;33.95;14.93;;;-1.20;99.90;;;;;;6222323;28;20123;-86
2023/11/30 06:54:55;;;;;;;31.50;13.90;;;-1.20;99.90;;;;;;6228387;28;20053;-86
2023/11/30 06:57:57;;;;;;;29.92;14.20;;;-1.10;99.90;;;;;;6226779;28;20053;-85
2023/11/30 07:00:58;;;;;;;37.30;14.60;;;-1.00;99.90;;;;;;6246405;28;20080;-85
2023/11/30 07:04:00;;;;;;;30.85;13.40;;;-1.00;99.90;;;;;;6222370;28;20121;-86
2023/11/30 07:07:02;;;;;;;33.35;14.00;;;-0.90;99.90;;;;;;6229249;28;20562;-85
2023/11/30 07:10:04;;;;;;;36.08;14.13;;;-0.90;99.90;;;;;;6222437;28;20064;-86
2023/11/30 07:13:05;;;;;;;31.50;13.68;;;-0.80;99.90;;;;;;6234218;28;20417;-85
2023/11/30 07:16:07;;;;;;;39.17;15.65;;;-0.90;99.90;;;;;;6245543;28;20131;-85
2023/11/30 07:19:09;;;;;;;31.83;13.75;;;-0.80;99.90;;;;;;6219609;28;20050;-85
2023/11/30 07:22:11;;;;;;;36.88;14.40;;;-0.80;99.90;;;;;;6221536;28;20050;-86
2023/11/30 07:25:13;;;;;;;36.10;15.55;;;-0.70;99.90;;;;;;6245904;28;20184;-85
2023/11/30 07:28:14;;;;;;;39.85;15.60;;;-0.70;99.90;;;;;;6230911;28;20045;-87
2023/11/30 07:31:16;;;;;;;34.38;14.40;;;-0.70;99.90;;;;;;6222920;28;20052;-86
2023/11/30 07:34:18;;;;;;;36.72;14.50;;;-0.60;99.90;;;;;;6244862;28;20163;-84
2023/11/30 07:37:19;;;;;;;41.13;14.32;;;-0.60;99.90;;;;;;6221222;28;20509;-87
2023/11/30 07:40:21;;;;;;;37.55;14.88;;;-0.50;99.90;;;;;;6245469;28;20060;-86
2023/11/30 07:43:23;;;;;;;41.78;14.35;;;-0.50;99.90;;;;;;6227000;28;20049;-86
2023/11/30 07:46:25;;;;;;;38.75;14.93;;;-0.40;99.90;;;;;;6205469;28;20057;-87
2023/11/30 07:49:26;;;;;;;46.03;14.73;;;-0.40;99.90;;;;;;6246862;28;20045;-86
2023/11/30 07:52:28;;;;;;;58.97;15.73;;;-0.40;99.90;;;;;;6223275;28;20139;-85
2023/11/30 07:55:30;;;;;;;39.00;14.13;;;-0.30;99.90;;;;;;6249331;28;20140;-86
2023/11/30 07:58:32;;;;;;;41.83;14.48;;;-0.30;99.90;;;;;;6234271;28;20049;-85
2023/11/30 08:01:34;;;;;;;37.58;14.48;;;-0.30;99.90;;;;;;6221405;28;20504;-86
2023/11/30 08:04:35;;;;;;;36.20;14.43;;;-0.20;99.90;;;;;;6243989;28;20049;-84
2023/11/30 08:07:37;;;;;;;56.70;14.02;;;-0.10;99.90;;;;;;6220747;28;20101;-84
2023/11/30 08:10:39;;;;;;;45.42;14.32;;;-0.10;99.90;;;;;;6225961;28;20053;-85
2023/11/30 08:13:41;;;;;;;62.03;15.15;;;-0.10;99.90;;;;;;6226301;28;20049;-82
2023/11/30 08:16:42;;;;;;;38.60;14.23;;;-0.10;99.90;;;;;;6220293;28;20057;-86
2023/11/30 08:19:44;;;;;;;38.30;14.65;;;0.00;99.90;;;;;;6242328;28;20092;-85
2023/11/30 08:22:46;;;;;;;39.92;15.75;;;0.00;99.90;;;;;;6205298;28;20058;-84
2023/11/30 08:25:47;;;;;;;41.28;15.13;;;0.10;99.90;;;;;;6226859;28;20517;-84
2023/11/30 08:28:50;;;;;;;41.85;14.50;;;0.10;99.90;;;;;;6231606;28;20060;-83
2023/11/30 08:31:51;;;;;;;36.85;13.93;;;0.10;99.90;;;;;;6219780;28;20060;-83
2023/11/30 08:34:53;;;;;;;38.45;14.05;;;0.20;99.90;;;;;;6245274;28;20057;-86
2023/11/30 08:37:55;;;;;;;33.25;11.82;;;0.20;99.90;;;;;;6223795;28;20056;-89
2023/11/30 08:40:57;;;;;;;33.92;13.32;;;0.30;99.90;;;;;;6206630;28;20079;-89
2023/11/30 08:43:58;;;;;;;31.65;12.07;;;0.30;99.90;;;;;;6211611;28;20061;-86
2023/11/30 08:47:00;;;;;;;40.33;12.30;;;0.30;99.90;;;;;;6229592;28;20054;-92
2023/11/30 08:50:04;;;;;;;31.05;12.40;;;0.40;99.90;;;;;;6207621;28;20085;-86
2023/11/30 08:53:05;;;;;;;29.25;11.63;;;0.40;99.90;;;;;;6246174;28;20065;-85
2023/11/30 08:56:07;;;;;;;29.60;11.55;;;0.40;99.90;;;;;;6224425;28;20064;-88
2023/11/30 08:59:09;;;;;;;29.48;11.65;;;0.40;99.90;;;;;;6229988;28;20444;-89
2023/11/30 09:02:10;;;;;;;27.13;11.10;;;0.50;99.90;;;;;;6226595;28;20417;-90
2023/11/30 09:05:15;;;;;;;30.73;11.75;;;0.60;99.90;;;;;;6252915;28;20050;-89
2023/11/30 09:08:20;;;;;;;28.92;11.52;;;0.60;99.90;;;;;;6213250;28;20078;-90
2023/11/30 09:11:22;;;;;;;24.08;10.77;;;0.60;99.90;;;;;;6237138;28;20073;-90
2023/11/30 09:14:24;;;;;;;27.02;11.82;;;0.60;99.90;;;;;;6229591;28;20049;-91
2023/11/30 09:17:25;;;;;;;26.58;11.25;;;0.70;99.90;;;;;;6211754;28;20050;-90
2023/11/30 09:20:27;;;;;;;32.80;11.70;;;0.70;99.90;;;;;;6223356;28;20404;-90
2023/11/30 09:23:29;;;;;;;26.90;11.23;;;0.70;99.90;;;;;;6251996;28;20056;-89
2023/11/30 09:26:34;;;;;;;27.02;11.55;;;0.70;99.90;;;;;;6211035;28;20068;-89
2023/11/30 09:29:36;;;;;;;22.67;9.77;;;0.80;99.90;;;;;;6252242;28;20100;-94
2023/11/30 09:32:38;;;;;;;23.83;11.18;;;0.80;99.90;;;;;;6230985;28;20057;-87
2023/11/30 09:35:40;;;;;;;24.13;10.93;;;0.80;99.90;;;;;;6252127;28;20041;-88
2023/11/30 09:38:41;;;;;;;29.08;11.93;;;0.70;99.90;;;;;;6209025;28;20050;-87
2023/11/30 09:41:43;;;;;;;31.98;13.18;;;0.70;99.90;;;;;;6251630;28;20065;-86
2023/11/30 09:44:45;;;;;;;33.15;13.77;;;0.70;99.90;;;;;;6208962;28;20068;-87
2023/11/30 09:47:46;;;;;;;31.48;15.15;;;0.70;99.90;;;;;;6232673;28;20060;-86
2023/11/30 09:50:48;;;;;;;31.90;14.75;;;0.70;99.90;;;;;;6230028;28;20088;-89
2023/11/30 09:53:55;;;;;;;26.58;12.45;;;0.80;99.90;;;;;;6253371;28;20123;-91
2023/11/30 09:56:57;;;;;;;28.83;12.45;;;0.90;99.90;;;;;;6209220;28;20391;-86
2023/11/30 09:59:58;;;;;;;27.77;12.40;;;0.80;99.90;;;;;;6248964;28;20052;-90
2023/11/30 10:03:00;;;;;;;26.90;11.32;;;0.80;99.90;;;;;;6232911;28;20065;-90
2023/11/30 10:06:02;;;;;;;25.90;11.20;;;0.80;99.90;;;;;;6240596;28;20164;-91
2023/11/30 10:09:04;;;;;;;24.95;10.73;;;0.80;99.90;;;;;;6237214;28;20049;-89
2023/11/30 10:12:06;;;;;;;25.65;11.30;;;0.80;99.90;;;;;;6251017;28;20041;-89
2023/11/30 10:15:09;;;;;;;24.58;10.65;;;0.80;99.90;;;;;;6234189;28;20041;-88
2023/11/30 10:18:11;;;;;;;24.15;10.88;;;0.80;99.90;;;;;;6235208;28;20054;-86
2023/11/30 10:21:13;;;;;;;26.73;11.18;;;0.80;99.90;;;;;;6272345;28;20055;-87
2023/11/30 10:24:15;;;;;;;23.13;10.85;;;0.80;99.90;;;;;;6217264;28;20049;-88
2023/11/30 10:27:17;;;;;;;26.25;11.45;;;0.90;99.90;;;;;;6249496;28;20127;-89
2023/11/30 10:30:18;;;;;;;25.33;11.02;;;0.90;99.90;;;;;;6208215;28;20060;-88
2023/11/30 10:33:21;;;;;;;26.30;11.05;;;1.10;99.90;;;;;;6209787;28;20046;-88
2023/11/30 10:36:23;;;;;;;25.27;10.98;;;1.10;99.90;;;;;;6251045;28;20055;-89
2023/11/30 10:39:25;;;;;;;28.65;10.85;;;1.10;99.90;;;;;;6225303;28;20069;-88
2023/11/30 10:42:27;;;;;;;27.92;11.80;;;1.10;99.90;;;;;;6229891;28;20061;-87
2023/11/30 10:45:29;;;;;;;24.65;11.27;;;1.10;99.90;;;;;;6227907;28;20143;-89
2023/11/30 10:48:31;;;;;;;25.92;11.82;;;1.10;99.90;;;;;;6251444;28;20045;-88
2023/11/30 10:51:33;;;;;;;29.67;12.88;;;1.10;99.90;;;;;;6227662;28;20053;-89
2023/11/30 10:54:35;;;;;;;25.98;11.20;;;1.20;99.90;;;;;;6233620;28;20457;-90
2023/11/30 10:57:36;;;;;;;27.90;12.30;;;1.30;99.90;;;;;;6212549;28;20057;-91
2023/11/30 11:00:42;;;;;;;24.55;11.57;;;1.40;99.90;;;;;;6234236;28;20053;-89
2023/11/30 11:03:44;;;;;;;26.60;12.35;;;1.50;99.90;;;;;;6226361;28;20046;-89
2023/11/30 11:06:45;;;;;;;25.05;11.57;;;1.60;99.90;;;;;;6251605;28;20057;-88
2023/11/30 11:09:47;;;;;;;27.08;12.18;;;1.70;99.90;;;;;;6228255;28;20050;-90
2023/11/30 11:12:48;;;;;;;26.85;12.93;;;1.80;99.90;;;;;;6226642;28;20049;-92
2023/11/30 11:15:50;;;;;;;29.88;13.07;;;1.80;99.90;;;;;;6229889;28;20069;-90
2023/11/30 11:18:52;;;;;;;25.75;12.25;;;1.80;99.90;;;;;;6251840;28;20057;-90
2023/11/30 11:21:54;;;;;;;28.10;12.50;;;1.80;99.90;;;;;;6239172;28;20041;-89
2023/11/30 11:24:56;;;;;;;27.30;12.73;;;1.70;99.90;;;;;;6245375;28;20493;-90
2023/11/30 11:27:57;;;;;;;27.20;13.15;;;1.70;99.90;;;;;;6227139;28;20033;-89
2023/11/30 11:30:59;;;;;;;29.70;13.38;;;1.80;99.90;;;;;;6268951;28;20052;-91
2023/11/30 11:34:16;;;;;;;28.65;12.70;;;1.80;99.90;;;;;;6227723;28;20072;-92
2023/11/30 11:37:17;;;;;;;28.48;12.75;;;1.80;99.90;;;;;;6252606;28;20049;-89
2023/11/30 11:40:20;;;;;;;26.58;12.65;;;2.00;99.90;;;;;;6225758;28;20053;-90
2023/11/30 11:43:22;;;;;;;25.95;12.27;;;2.10;99.90;;;;;;6233882;28;20086;-89
2023/11/30 11:46:24;;;;;;;26.17;12.40;;;2.20;99.90;;;;;;6242726;28;20049;-89
2023/11/30 11:49:26;;;;;;;25.00;12.45;;;2.20;99.90;;;;;;6236992;28;20050;-89
2023/11/30 11:52:30;;;;;;;26.52;12.65;;;2.30;99.90;;;;;;6242654;28;20053;-90
2023/11/30 11:55:32;;;;;;;27.17;12.77;;;2.50;99.90;;;;;;6232754;28;20263;-89
2023/11/30 11:58:35;;;;;;;25.95;12.60;;;2.60;99.90;;;;;;6252022;28;20050;-90
2023/11/30 12:01:36;;;;;;;25.27;12.13;;;2.70;99.90;;;;;;6266742;28;20057;-90
2023/11/30 12:04:39;;;;;;;24.20;11.73;;;2.80;99.90;;;;;;6222729;28;20118;-91
2023/11/30 12:07:41;;;;;;;23.75;11.80;;;2.80;99.90;;;;;;6265866;28;20120;-91
2023/11/30 12:10:42;;;;;;;21.15;11.25;;;2.90;99.90;;;;;;6240309;28;20054;-90
2023/11/30 12:13:44;;;;;;;23.10;10.85;;;3.00;99.90;;;;;;6247776;28;20117;-90
2023/11/30 12:16:46;;;;;;;21.02;9.95;;;3.10;99.90;;;;;;6248319;28;20076;-94
2023/11/30 12:19:48;;;;;;;22.48;10.55;;;3.10;99.90;;;;;;6243754;28;20061;-92
2023/11/30 12:22:50;;;;;;;20.80;10.55;;;3.20;99.90;;;;;;6256999;28;20045;-91
2023/11/30 12:25:52;;;;;;;20.70;10.20;;;3.30;99.90;;;;;;6231457;28;20053;-91
2023/11/30 12:28:57;;;;;;;22.05;10.73;;;3.40;99.90;;;;;;6221799;28;20129;-92
2023/11/30 12:31:59;;;;;;;23.17;10.57;;;3.40;99.90;;;;;;6255485;28;20064;-91
2023/11/30 12:35:01;;;;;;;23.10;10.80;;;3.60;99.90;;;;;;6231001;28;20141;-91
2023/11/30 12:38:02;;;;;;;23.77;10.73;;;3.60;99.90;;;;;;6237596;28;20053;-91
2023/11/30 12:41:05;;;;;;;21.88;11.25;;;3.70;99.90;;;;;;6242662;28;20049;-91
2023/11/30 12:44:07;;;;;;;21.77;10.63;;;3.80;99.90;;;;;;6249556;28;20045;-91
2023/11/30 12:47:11;;;;;;;18.73;9.45;;;3.90;99.90;;;;;;6216159;28;20050;-90
2023/11/30 12:50:14;;;;;;;18.95;9.63;;;4.00;99.90;;;;;;6258922;28;20060;-90
2023/11/30 12:53:17;;;;;;;17.65;8.90;;;4.00;99.90;;;;;;6233860;28;20045;-90
2023/11/30 12:56:19;;;;;;;18.92;8.48;;;4.10;99.90;;;;;;6257509;28;20045;-90
2023/11/30 12:59:21;;;;;;;15.48;8.05;;;4.10;99.90;;;;;;6212195;28;20049;-89
2023/11/30 13:02:22;;;;;;;15.07;7.45;;;4.10;99.90;;;;;;6238432;28;20068;-89
2023/11/30 13:05:25;;;;;;;14.38;6.97;;;4.30;99.90;;;;;;6232285;28;20046;-88
2023/11/30 13:08:26;;;;;;;15.02;6.50;;;4.30;99.90;;;;;;6254331;28;20079;-89
2023/11/30 13:11:28;;;;;;;10.40;5.18;;;4.40;99.90;;;;;;6214005;28;20405;-89
2023/11/30 13:14:30;;;;;;;13.93;4.93;;;4.40;99.90;;;;;;6251686;28;20103;-89
2023/11/30 13:17:33;;;;;;;9.35;3.95;;;4.60;99.90;;;;;;6230142;28;20057;-89
2023/11/30 13:20:35;;;;;;;8.82;3.40;;;4.70;99.90;;;;;;6240022;28;20064;-89
2023/11/30 13:23:36;;;;;;;8.43;3.00;;;4.80;99.90;;;;;;6253742;28;20052;-89
2023/11/30 13:26:39;;;;;;;7.22;3.00;;;5.00;99.90;;;;;;6229037;28;20050;-89
2023/11/30 13:29:41;;;;;;;9.82;3.15;;;5.10;99.90;;;;;;6251851;28;20547;-88
2023/11/30 13:32:42;;;;;;;7.55;3.00;;;5.20;99.90;;;;;;6228196;28;20064;-87
2023/11/30 13:35:44;;;;;;;9.68;3.35;;;5.10;99.90;;;;;;6233417;28;20416;-86
2023/11/30 13:38:46;;;;;;;7.05;2.63;;;5.20;99.50;;;;;;6225459;28;20057;-86
2023/11/30 13:41:47;;;;;;;8.82;2.97;;;5.20;98.60;;;;;;6251351;28;20049;-88
2023/11/30 13:44:49;;;;;;;8.65;2.90;;;5.10;98.80;;;;;;6224049;28;20053;-87
2023/11/30 13:47:50;;;;;;;10.05;3.10;;;5.00;97.10;;;;;;6249431;28;20053;-87
2023/11/30 13:50:53;;;;;;;5.13;2.50;;;4.80;96.20;;;;;;6223762;28;20058;-86
2023/11/30 13:54:01;;;;;;;6.32;2.58;;;4.70;95.80;;;;;;6226012;28;20054;-87
2023/11/30 13:57:05;;;;;;;8.43;2.40;;;4.50;95.60;;;;;;6251827;28;20056;-88
2023/11/30 14:00:09;;;;;;;7.68;2.67;;;4.40;97.40;;;;;;6222439;28;20076;-85
2023/11/30 14:03:12;;;;;;;7.97;2.65;;;4.30;96.30;;;;;;6248236;28;20049;-85
2023/11/30 14:06:15;;;;;;;4.95;2.53;;;4.20;94.60;;;;;;6224678;28;20042;-86
2023/11/30 14:09:26;;;;;;;5.85;2.65;;;4.20;94.80;;;;;;6231170;28;20551;-85
2023/11/30 14:12:28;;;;;;;7.43;2.20;;;4.20;95.20;;;;;;6223267;28;20054;-80
2023/11/30 14:15:30;;;;;;;5.82;2.40;;;4.20;96.40;;;;;;6247545;28;20061;-85
2023/11/30 14:18:31;;;;;;;7.43;2.45;;;4.20;96.90;;;;;;6224740;28;20756;-85
2023/11/30 14:21:33;;;;;;;7.68;2.60;;;4.10;97.20;;;;;;6247775;28;20508;-85
2023/11/30 14:24:34;;;;;;;5.88;2.53;;;4.00;98.20;;;;;;6225642;28;20073;-85
2023/11/30 14:27:36;;;;;;;6.85;2.40;;;3.90;98.00;;;;;;6240569;28;20046;-85
2023/11/30 14:30:38;;;;;;;5.75;2.50;;;3.80;99.00;;;;;;6223308;28;20405;-83
2023/11/30 14:33:40;;;;;;;8.25;2.53;;;3.70;99.00;;;;;;6223904;28;20508;-87
2023/11/30 14:36:42;;;;;;;5.75;2.33;;;3.60;99.40;;;;;;6248043;28;20142;-84
2023/11/30 14:39:44;;;;;;;9.38;2.70;;;3.60;99.90;;;;;;6222123;28;20052;-84
2023/11/30 14:42:46;;;;;;;6.35;2.60;;;3.40;99.90;;;;;;6225109;28;20739;-85
2023/11/30 14:45:48;;;;;;;6.38;2.50;;;3.40;99.90;;;;;;6246918;28;20096;-85
2023/11/30 14:48:50;;;;;;;5.50;2.28;;;3.40;99.90;;;;;;6223846;28;20042;-85
2023/11/30 14:51:51;;;;;;;8.68;2.72;;;3.40;99.80;;;;;;6246777;28;20078;-86
2023/11/30 14:54:55;;;;;;;7.70;2.80;;;3.30;99.90;;;;;;6226934;28;20059;-86
2023/11/30 14:57:57;;;;;;;7.07;2.20;;;3.30;99.90;;;;;;6227715;28;20461;-84
2023/11/30 15:00:59;;;;;;;8.88;2.15;;;3.20;99.90;;;;;;6236148;28;20137;-83
2023/11/30 15:04:01;;;;;;;7.47;3.08;;;3.10;99.90;;;;;;6246475;28;20619;-80
2023/11/30 15:07:03;;;;;;;13.05;3.33;;;3.00;99.90;;;;;;6220073;28;20484;-79
2023/11/30 15:10:04;;;;;;;5.30;2.60;;;3.00;99.90;;;;;;6243730;28;20099;-79
2023/11/30 15:13:06;;;;;;;7.30;2.65;;;2.80;99.90;;;;;;6224463;28;20045;-81
2023/11/30 15:16:08;;;;;;;5.68;2.53;;;2.80;99.90;;;;;;6225743;28;20054;-82
2023/11/30 15:19:10;;;;;;;6.68;2.75;;;2.80;99.90;;;;;;6244885;28;20631;-79
2023/11/30 15:22:12;;;;;;;7.25;2.60;;;2.80;99.90;;;;;;6222013;28;20153;-81
2023/11/30 15:25:22;;;;;;;7.25;2.00;;;2.70;99.90;;;;;;6298741;28;20817;-84
2023/11/30 15:28:23;;;;;;;6.60;2.47;;;2.50;99.90;;;;;;6300121;28;20125;-83
2023/11/30 15:31:25;;;;;;;9.48;2.63;;;2.50;99.90;;;;;;6289865;28;20048;-81
2023/11/30 15:34:28;;;;;;;7.55;2.40;;;2.30;99.90;;;;;;6314573;28;20147;-81